createdAt,value
2022-09-28T00:00:48.302Z,98067.65
2022-09-28T00:01:50.851Z,98071.91
2022-09-28T00:02:53.581Z,98063.98
2022-09-28T00:03:56.496Z,98068.47
2022-09-28T00:04:58.967Z,98073.95
2022-09-28T00:06:01.445Z,98076.43
2022-09-28T00:07:03.910Z,98059.86
2022-09-28T00:08:06.371Z,98067.63
2022-09-28T00:09:08.827Z,98067.03
2022-09-28T00:10:11.665Z,98061.30
2022-09-28T00:11:14.189Z,98065.16
2022-09-28T00:12:16.644Z,98066.61
2022-09-28T00:13:19.089Z,98067.63
2022-09-28T00:14:21.533Z,98062.91
2022-09-28T00:15:23.971Z,98064.34
2022-09-28T00:16:26.856Z,98064.13
2022-09-28T00:17:29.421Z,98065.37
2022-09-28T00:18:31.862Z,98055.96
2022-09-28T00:19:34.304Z,98062.48
2022-09-28T00:20:37.100Z,98062.28
2022-09-28T00:21:39.608Z,98061.47
2022-09-28T00:22:42.051Z,98064.55
2022-09-28T00:23:44.541Z,98063.11
2022-09-28T00:24:47.006Z,98068.19
2022-09-28T00:25:49.444Z,98064.52
2022-09-28T00:26:52.229Z,98069.20
2022-09-28T00:27:54.691Z,98062.25
2022-09-28T00:28:57.138Z,98057.56
2022-09-28T00:29:59.586Z,98057.13
2022-09-28T00:31:02.325Z,98059.00
2022-09-28T00:32:04.993Z,98056.55
2022-09-28T00:33:07.444Z,98050.22
2022-09-28T00:34:09.882Z,98057.76
2022-09-28T00:35:12.383Z,98049.80
2022-09-28T00:36:15.324Z,98048.97
2022-09-28T00:37:17.802Z,98046.75
2022-09-28T00:38:20.277Z,98047.77
2022-09-28T00:39:22.964Z,98051.04
2022-09-28T00:40:25.683Z,98051.83
2022-09-28T00:41:28.172Z,98048.58
2022-09-28T00:42:30.657Z,98052.48
2022-09-28T00:43:33.095Z,98042.68
2022-09-28T00:44:35.546Z,98042.87
2022-09-28T00:45:38.033Z,98038.59
2022-09-28T00:46:40.734Z,98041.24
2022-09-28T00:47:43.418Z,98038.20
2022-09-28T00:48:45.855Z,98034.52
2022-09-28T00:49:48.303Z,98032.06
2022-09-28T00:50:50.851Z,98036.16
2022-09-28T00:51:53.290Z,98042.69
2022-09-28T00:52:55.761Z,98038.00
2022-09-28T00:53:58.203Z,98035.55
2022-09-28T00:55:00.651Z,98033.11
2022-09-28T00:56:03.207Z,98039.64
2022-09-28T00:57:05.646Z,98033.91
2022-09-28T00:58:08.132Z,98033.70
2022-09-28T00:59:10.578Z,98028.20
2022-09-28T01:00:13.348Z,98030.46
2022-09-28T01:01:15.871Z,98037.61
2022-09-28T01:02:18.411Z,98037.61
2022-09-28T01:03:21.268Z,98033.70
2022-09-28T01:04:27.980Z,98031.05
2022-09-28T01:05:28.176Z,98036.95
2022-09-28T01:06:30.827Z,98031.83
2022-09-28T01:07:33.263Z,98038.16
2022-09-28T01:08:35.736Z,98049.20
2022-09-28T01:09:38.181Z,98049.83
2022-09-28T01:10:40.931Z,98046.12
2022-09-28T01:11:43.417Z,98050.61
2022-09-28T01:12:46.178Z,98043.86
2022-09-28T01:13:48.651Z,98041.44
2022-09-28T01:14:51.126Z,98041.44
2022-09-28T01:15:53.740Z,98043.07
2022-09-28T01:16:56.273Z,98036.55
2022-09-28T01:17:58.715Z,98038.55
2022-09-28T01:19:01.190Z,98042.22
2022-09-28T01:20:03.654Z,98042.25
2022-09-28T01:21:06.089Z,98038.59
2022-09-28T01:22:08.758Z,98037.38
2022-09-28T01:23:11.202Z,98041.08
2022-09-28T01:24:13.689Z,98038.59
2022-09-28T01:25:16.128Z,98034.92
2022-09-28T01:26:18.789Z,98031.63
2022-09-28T01:27:21.244Z,98035.31
2022-09-28T01:28:23.693Z,98029.56
2022-09-28T01:29:26.273Z,98042.22
2022-09-28T01:30:28.822Z,98033.23
2022-09-28T01:31:31.331Z,98031.80
2022-09-28T01:32:33.936Z,98030.78
2022-09-28T01:33:36.376Z,98023.24
2022-09-28T01:34:38.864Z,98026.91
2022-09-28T01:35:41.329Z,98024.65
2022-09-28T01:36:43.976Z,98030.19
2022-09-28T01:37:46.445Z,98026.28
2022-09-28T01:38:48.887Z,98027.30
2022-09-28T01:39:51.444Z,98027.53
2022-09-28T01:40:54.025Z,98023.62
2022-09-28T01:41:56.731Z,98024.84
2022-09-28T01:42:59.171Z,98027.10
2022-09-28T01:44:01.612Z,98022.18
2022-09-28T01:45:04.123Z,98028.35
2022-09-28T01:46:06.804Z,98015.09
2022-09-28T01:47:09.338Z,98026.91
2022-09-28T01:48:11.775Z,98024.69
2022-09-28T01:49:14.321Z,98020.63
2022-09-28T01:50:18.105Z,98023.44
2022-09-28T01:51:20.554Z,98027.14
2022-09-28T01:52:22.994Z,98021.41
2022-09-28T01:53:25.538Z,98022.81
2022-09-28T01:54:28.331Z,98023.44
2022-09-28T01:55:30.796Z,98019.77
2022-09-28T01:56:33.466Z,98025.08
2022-09-28T01:57:35.921Z,98018.31
2022-09-28T01:58:38.357Z,98024.65
2022-09-28T01:59:40.826Z,98029.33
2022-09-28T02:00:43.545Z,98021.56
2022-09-28T02:01:46.111Z,98021.36
2022-09-28T02:02:48.618Z,98016.88
2022-09-28T02:03:51.071Z,98016.67
2022-09-28T02:04:53.612Z,98020.93
2022-09-28T02:05:56.125Z,98016.67
2022-09-28T02:06:58.869Z,98007.06
2022-09-28T02:08:01.313Z,98015.23
2022-09-28T02:09:03.754Z,98018.51
2022-09-28T02:10:06.294Z,98015.85
2022-09-28T02:11:08.756Z,98014.41
2022-09-28T02:12:11.190Z,98017.45
2022-09-28T02:13:13.638Z,98018.51
2022-09-28T02:14:16.078Z,98010.73
2022-09-28T02:15:18.513Z,98016.05
2022-09-28T02:16:21.106Z,98019.52
2022-09-28T02:17:23.617Z,98027.49
2022-09-28T02:18:26.064Z,98027.06
2022-09-28T02:19:28.529Z,98031.98
2022-09-28T02:20:31.429Z,98023.81
2022-09-28T02:21:34.171Z,98031.55
2022-09-28T02:22:36.822Z,98031.95
2022-09-28T02:23:39.258Z,98035.61
2022-09-28T02:24:41.692Z,98034.79
2022-09-28T02:25:44.127Z,98028.66
2022-09-28T02:26:46.959Z,98029.91
2022-09-28T02:27:49.471Z,98028.07
2022-09-28T02:28:51.933Z,98023.97
2022-09-28T02:29:54.374Z,98025.42
2022-09-28T02:30:56.909Z,98020.11
2022-09-28T02:31:59.406Z,98025.22
2022-09-28T02:33:01.837Z,98019.33
2022-09-28T02:34:04.298Z,98022.77
2022-09-28T02:35:06.735Z,98020.55
2022-09-28T02:36:09.992Z,98016.05
2022-09-28T02:37:12.514Z,98018.51
2022-09-28T02:38:14.951Z,98023.39
2022-09-28T02:39:17.438Z,98021.32
2022-09-28T02:40:20.109Z,98022.95
2022-09-28T02:41:22.698Z,98021.51
2022-09-28T02:42:25.169Z,98026.00
2022-09-28T02:43:27.748Z,98026.39
2022-09-28T02:44:30.213Z,98023.73
2022-09-28T02:45:32.669Z,98030.69
2022-09-28T02:46:35.394Z,98017.20
2022-09-28T02:47:37.858Z,98023.09
2022-09-28T02:48:44.118Z,98022.90
2022-09-28T02:49:44.677Z,98017.59
2022-09-28T02:50:47.314Z,98020.64
2022-09-28T02:51:49.749Z,98010.84
2022-09-28T02:52:52.212Z,98020.88
2022-09-28T02:53:54.650Z,98018.22
2022-09-28T02:54:57.081Z,98012.52
2022-09-28T02:55:59.519Z,98018.42
2022-09-28T02:57:02.061Z,98018.42
2022-09-28T02:58:04.546Z,98022.09
2022-09-28T02:59:07.015Z,98020.69
2022-09-28T03:00:10.409Z,98017.22
2022-09-28T03:01:12.900Z,98014.79
2022-09-28T03:02:15.530Z,98015.61
2022-09-28T03:03:18.264Z,98019.05
2022-09-28T03:04:20.695Z,98015.61
2022-09-28T03:05:23.132Z,98014.36
2022-09-28T03:06:25.617Z,98014.55
2022-09-28T03:07:28.048Z,98016.00
2022-09-28T03:08:30.515Z,98020.05
2022-09-28T03:09:32.962Z,98014.95
2022-09-28T03:10:35.622Z,98018.22
2022-09-28T03:11:38.055Z,98011.47
2022-09-28T03:12:40.520Z,98021.30
2022-09-28T03:13:42.977Z,98022.91
2022-09-28T03:14:45.621Z,98015.95
2022-09-28T03:15:49.084Z,98014.11
2022-09-28T03:16:52.221Z,98022.08
2022-09-28T03:17:54.688Z,98012.47
2022-09-28T03:18:57.720Z,98015.95
2022-09-28T03:20:00.160Z,98021.65
2022-09-28T03:21:02.594Z,98025.94
2022-09-28T03:22:05.227Z,98020.39
2022-09-28T03:23:25.109Z,98029.42
2022-09-28T03:24:12.428Z,98026.33
2022-09-28T03:25:14.900Z,98024.69
2022-09-28T03:26:17.748Z,98020.83
2022-09-28T03:27:20.199Z,98027.78
2022-09-28T03:28:22.666Z,98024.10
2022-09-28T03:29:25.121Z,98033.86
2022-09-28T03:30:28.116Z,98024.88
2022-09-28T03:31:30.616Z,98032.41
2022-09-28T03:32:33.197Z,98034.63
2022-09-28T03:33:35.781Z,98033.38
2022-09-28T03:34:38.260Z,98038.49
2022-09-28T03:35:40.698Z,98031.34
2022-09-28T03:36:43.241Z,98028.06
2022-09-28T03:37:45.676Z,98035.45
2022-09-28T03:38:48.128Z,98032.20
2022-09-28T03:39:50.640Z,98036.70
2022-09-28T03:40:53.389Z,98041.59
2022-09-28T03:41:55.943Z,98041.15
2022-09-28T03:42:58.417Z,98039.52
2022-09-28T03:44:00.855Z,98039.11
2022-09-28T03:45:03.353Z,98032.98
2022-09-28T03:46:06.079Z,98033.13
2022-09-28T03:47:08.746Z,98028.81
2022-09-28T03:48:11.187Z,98037.80
2022-09-28T03:49:13.686Z,98036.78
2022-09-28T03:50:16.826Z,98036.78
2022-09-28T03:51:19.268Z,98038.19
2022-09-28T03:52:21.704Z,98040.02
2022-09-28T03:53:24.143Z,98033.25
2022-09-28T03:54:26.578Z,98035.09
2022-09-28T03:55:29.072Z,98041.22
2022-09-28T03:56:31.806Z,98041.45
2022-09-28T03:57:34.248Z,98038.56
2022-09-28T03:58:36.687Z,98044.27
2022-09-28T03:59:39.131Z,98038.95
2022-09-28T04:00:41.958Z,98041.41
2022-09-28T04:01:44.477Z,98042.22
2022-09-28T04:02:46.993Z,98047.74
2022-09-28T04:03:49.427Z,98040.20
2022-09-28T04:04:53.111Z,98045.72
2022-09-28T04:05:55.795Z,98045.14
2022-09-28T04:06:58.460Z,98041.08
2022-09-28T04:08:00.912Z,98044.31
2022-09-28T04:09:03.373Z,98048.81
2022-09-28T04:10:06.251Z,98051.27
2022-09-28T04:11:08.763Z,98059.83
2022-09-28T04:12:11.227Z,98052.67
2022-09-28T04:13:13.781Z,98051.04
2022-09-28T04:14:16.249Z,98045.52
2022-09-28T04:15:18.747Z,98051.04
2022-09-28T04:16:22.041Z,98050.63
2022-09-28T04:17:24.654Z,98047.30
2022-09-28T04:18:27.103Z,98045.27
2022-09-28T04:19:29.559Z,98044.23
2022-09-28T04:20:32.314Z,98047.92
2022-09-28T04:21:35.047Z,98047.53
2022-09-28T04:22:37.501Z,98043.44
2022-09-28T04:23:39.970Z,98044.06
2022-09-28T04:24:42.435Z,98048.13
2022-09-28T04:25:44.893Z,98046.08
2022-09-28T04:26:47.673Z,98050.75
2022-09-28T04:27:50.123Z,98045.27
2022-09-28T04:28:52.705Z,98047.10
2022-09-28T04:29:55.182Z,98049.55
2022-09-28T04:30:58.074Z,98043.80
2022-09-28T04:32:00.621Z,98050.52
2022-09-28T04:33:03.118Z,98046.40
2022-09-28T04:34:05.566Z,98051.08
2022-09-28T04:35:08.009Z,98053.09
2022-09-28T04:36:12.280Z,98047.94
2022-09-28T04:37:15.068Z,98051.80
2022-09-28T04:38:30.675Z,98047.09
2022-09-28T04:39:22.419Z,98050.71
2022-09-28T04:40:24.949Z,98043.34
2022-09-28T04:41:27.486Z,98050.88
2022-09-28T04:42:29.966Z,98051.26
2022-09-28T04:43:32.414Z,98057.98
2022-09-28T04:44:34.863Z,98058.59
2022-09-28T04:45:37.384Z,98052.00
2022-09-28T04:46:40.177Z,98059.78
2022-09-28T04:47:42.656Z,98058.96
2022-09-28T04:48:45.093Z,98053.64
2022-09-28T04:49:47.559Z,98061.01
2022-09-28T04:50:50.018Z,98058.59
2022-09-28T04:51:52.457Z,98060.43
2022-09-28T04:52:54.944Z,98063.91
2022-09-28T04:53:57.384Z,98054.91
2022-09-28T04:54:59.829Z,98059.41
2022-09-28T04:56:02.410Z,98054.91
2022-09-28T04:57:05.014Z,98058.14
2022-09-28T04:58:07.509Z,98064.48
2022-09-28T04:59:10.039Z,98065.10
2022-09-28T05:00:14.005Z,98063.47
2022-09-28T05:01:16.753Z,98072.06
2022-09-28T05:02:19.268Z,98062.20
2022-09-28T05:03:22.010Z,98068.58
2022-09-28T05:04:26.123Z,98068.34
2022-09-28T05:05:28.907Z,98069.98
2022-09-28T05:06:31.550Z,98072.64
2022-09-28T05:07:34.200Z,98066.73
2022-09-28T05:08:36.665Z,98070.63
2022-09-28T05:09:39.107Z,98070.63
2022-09-28T05:10:41.648Z,98071.66
2022-09-28T05:11:44.111Z,98075.13
2022-09-28T05:12:46.581Z,98073.29
2022-09-28T05:13:49.070Z,98070.87
2022-09-28T05:14:51.520Z,98074.55
2022-09-28T05:15:58.067Z,98075.00
2022-09-28T05:16:58.615Z,98070.49
2022-09-28T05:18:01.214Z,98078.23
2022-09-28T05:19:03.716Z,98071.89
2022-09-28T05:20:06.869Z,98074.76
2022-09-28T05:21:09.320Z,98070.05
2022-09-28T05:22:11.753Z,98071.45
2022-09-28T05:23:14.195Z,98072.06
2022-09-28T05:24:16.690Z,98071.00
2022-09-28T05:25:19.128Z,98074.28
2022-09-28T05:26:21.980Z,98071.17
2022-09-28T05:27:24.450Z,98071.99
2022-09-28T05:28:26.895Z,98075.23
2022-09-28T05:29:32.255Z,98069.70
2022-09-28T05:30:34.163Z,98066.15
2022-09-28T05:31:36.650Z,98066.31
2022-09-28T05:32:39.150Z,98062.02
2022-09-28T05:33:41.596Z,98060.98
2022-09-28T05:34:44.143Z,98069.34
2022-09-28T05:35:51.039Z,98059.97
2022-09-28T05:36:51.150Z,98053.83
2022-09-28T05:37:53.596Z,98047.84
2022-09-28T05:38:56.042Z,98061.52
2022-09-28T05:39:58.536Z,98057.80
2022-09-28T05:41:05.731Z,98059.44
2022-09-28T05:42:05.558Z,98058.20
2022-09-28T05:43:08.006Z,98058.33
2022-09-28T05:44:10.516Z,98058.94
2022-09-28T05:45:13.126Z,98063.00
2022-09-28T05:46:16.800Z,98065.22
2022-09-28T05:47:19.362Z,98065.00
2022-09-28T05:48:21.805Z,98068.85
2022-09-28T05:49:24.273Z,98065.73
2022-09-28T05:50:26.772Z,98055.66
2022-09-28T05:51:29.219Z,98063.89
2022-09-28T05:52:31.800Z,98063.89
2022-09-28T05:53:34.277Z,98062.63
2022-09-28T05:54:36.725Z,98060.57
2022-09-28T05:55:39.204Z,98060.69
2022-09-28T05:56:42.147Z,98062.91
2022-09-28T05:57:44.593Z,98065.54
2022-09-28T05:58:47.072Z,98066.72
2022-09-28T05:59:49.512Z,98067.66
2022-09-28T06:00:52.218Z,98066.17
2022-09-28T06:01:54.834Z,98068.39
2022-09-28T06:02:57.273Z,98066.90
2022-09-28T06:03:59.792Z,98065.41
2022-09-28T06:05:02.241Z,98068.44
2022-09-28T06:06:04.840Z,98070.22
2022-09-28T06:07:07.283Z,98079.46
2022-09-28T06:08:09.923Z,98085.61
2022-09-28T06:09:12.390Z,98092.58
2022-09-28T06:10:15.337Z,98094.21
2022-09-28T06:11:17.855Z,98099.55
2022-09-28T06:12:20.294Z,98091.55
2022-09-28T06:13:22.740Z,98097.23
2022-09-28T06:14:25.196Z,98092.48
2022-09-28T06:15:27.735Z,98095.30
2022-09-28T06:16:30.446Z,98092.17
2022-09-28T06:17:32.888Z,98095.55
2022-09-28T06:18:35.330Z,98098.22
2022-09-28T06:19:37.775Z,98093.95
2022-09-28T06:20:40.739Z,98098.82
2022-09-28T06:21:43.247Z,98102.66
2022-09-28T06:22:45.691Z,98096.63
2022-09-28T06:23:49.380Z,98101.64
2022-09-28T06:24:52.111Z,98102.81
2022-09-28T06:25:56.377Z,98101.78
2022-09-28T06:26:59.265Z,98107.69
2022-09-28T06:28:01.706Z,98108.29
2022-09-28T06:29:04.149Z,98100.07
2022-09-28T06:30:07.224Z,98099.47
2022-09-28T06:31:09.791Z,98111.77
2022-09-28T06:32:12.369Z,98103.77
2022-09-28T06:33:14.807Z,98107.47
2022-09-28T06:34:17.399Z,98107.47
2022-09-28T06:35:20.331Z,98102.73
2022-09-28T06:36:22.886Z,98107.36
2022-09-28T06:37:25.358Z,98108.18
2022-09-28T06:38:27.796Z,98110.38
2022-09-28T06:39:30.243Z,98105.66
2022-09-28T06:40:33.052Z,98106.82
2022-09-28T06:41:35.621Z,98103.50
2022-09-28T06:42:38.189Z,98102.92
2022-09-28T06:43:40.676Z,98110.03
2022-09-28T06:44:43.114Z,98104.33
2022-09-28T06:45:45.578Z,98113.40
2022-09-28T06:46:48.418Z,98113.40
2022-09-28T06:47:50.882Z,98106.09
2022-09-28T06:48:53.336Z,98110.02
2022-09-28T06:49:55.779Z,98105.62
2022-09-28T06:50:58.417Z,98111.66
2022-09-28T06:52:00.877Z,98114.92
2022-09-28T06:53:03.356Z,98107.70
2022-09-28T06:54:05.810Z,98108.52
2022-09-28T06:55:08.290Z,98111.44
2022-09-28T06:56:11.272Z,98108.52
2022-09-28T06:57:13.704Z,98108.08
2022-09-28T06:58:16.196Z,98107.35
2022-09-28T06:59:18.632Z,98111.44
2022-09-28T07:00:21.301Z,98107.13
2022-09-28T07:01:23.802Z,98107.35
2022-09-28T07:02:26.330Z,98106.31
2022-09-28T07:03:28.891Z,98103.42
2022-09-28T07:04:31.406Z,98100.28
2022-09-28T07:05:33.960Z,98107.34
2022-09-28T07:06:36.711Z,98095.41
2022-09-28T07:07:39.345Z,98101.91
2022-09-28T07:08:41.823Z,98099.80
2022-09-28T07:09:49.338Z,98104.67
2022-09-28T07:10:48.962Z,98095.05
2022-09-28T07:11:51.397Z,98097.73
2022-09-28T07:12:53.833Z,98091.56
2022-09-28T07:13:56.365Z,98097.35
2022-09-28T07:14:58.835Z,98096.92
2022-09-28T07:16:01.269Z,98087.49
2022-09-28T07:17:14.240Z,98093.91
2022-09-28T07:18:08.144Z,98089.59
2022-09-28T07:19:10.666Z,98093.65
2022-09-28T07:20:18.890Z,98093.43
2022-09-28T07:21:27.168Z,98096.10
2022-09-28T07:22:37.260Z,98100.06
2022-09-28T07:23:27.118Z,98097.73
2022-09-28T07:24:29.703Z,98106.19
2022-09-28T07:25:32.140Z,98101.44
2022-09-28T07:26:35.089Z,98108.42
2022-09-28T07:27:37.528Z,98108.42
2022-09-28T07:28:39.987Z,98103.42
2022-09-28T07:29:42.469Z,98104.93
2022-09-28T07:30:45.159Z,98105.02
2022-09-28T07:31:47.857Z,98111.66
2022-09-28T07:32:50.293Z,98110.84
2022-09-28T07:33:52.728Z,98119.32
2022-09-28T07:34:58.781Z,98108.86
2022-09-28T07:35:59.540Z,98108.86
2022-09-28T07:37:02.079Z,98115.61
2022-09-28T07:38:04.528Z,98112.00
2022-09-28T07:39:06.982Z,98117.13
2022-09-28T07:40:10.067Z,98103.98
2022-09-28T07:41:12.803Z,98119.20
2022-09-28T07:42:15.449Z,98118.16
2022-09-28T07:43:17.923Z,98113.28
2022-09-28T07:44:20.378Z,98116.43
2022-09-28T07:45:22.853Z,98112.25
2022-09-28T07:46:25.553Z,98113.98
2022-09-28T07:47:33.835Z,98117.69
2022-09-28T07:48:32.927Z,98115.27
2022-09-28T07:49:35.362Z,98117.94
2022-09-28T07:50:38.040Z,98115.96
2022-09-28T07:51:40.472Z,98111.44
2022-09-28T07:52:42.909Z,98112.47
2022-09-28T07:53:45.349Z,98117.25
2022-09-28T07:54:47.830Z,98108.17
2022-09-28T07:55:50.288Z,98105.63
2022-09-28T07:56:52.725Z,98118.76
2022-09-28T07:57:55.166Z,98110.49
2022-09-28T07:58:57.630Z,98114.33
2022-09-28T08:00:00.087Z,98109.80
2022-09-28T08:01:02.586Z,98110.14
2022-09-28T08:02:05.508Z,98110.83
2022-09-28T08:03:07.926Z,98106.52
2022-09-28T08:04:10.404Z,98112.34
2022-09-28T08:05:12.873Z,98122.67
2022-09-28T08:06:15.934Z,98118.48
2022-09-28T08:07:22.801Z,98114.97
2022-09-28T08:08:23.115Z,98119.36
2022-09-28T08:09:25.570Z,98117.13
2022-09-28T08:10:28.005Z,98118.28
2022-09-28T08:11:30.482Z,98117.68
2022-09-28T08:12:32.920Z,98116.23
2022-09-28T08:13:35.360Z,98115.19
2022-09-28T08:14:37.791Z,98122.40
2022-09-28T08:15:40.360Z,98122.29
2022-09-28T08:16:43.243Z,98128.94
2022-09-28T08:17:45.878Z,98125.93
2022-09-28T08:18:48.323Z,98125.12
2022-09-28T08:19:50.778Z,98129.65
2022-09-28T08:20:53.347Z,98132.80
2022-09-28T08:21:55.826Z,98130.28
2022-09-28T08:22:58.349Z,98130.39
2022-09-28T08:24:00.803Z,98120.17
2022-09-28T08:25:03.518Z,98133.20
2022-09-28T08:26:06.551Z,98125.89
2022-09-28T08:27:09.049Z,98129.04
2022-09-28T08:28:11.485Z,98126.63
2022-09-28T08:29:13.917Z,98128.84
2022-09-28T08:30:16.687Z,98131.65
2022-09-28T08:31:19.193Z,98131.05
2022-09-28T08:32:21.726Z,98132.09
2022-09-28T08:33:24.158Z,98133.70
2022-09-28T08:34:26.595Z,98134.18
2022-09-28T08:35:29.036Z,98140.81
2022-09-28T08:36:31.780Z,98138.23
2022-09-28T08:37:34.275Z,98137.89
2022-09-28T08:38:36.881Z,98138.59
2022-09-28T08:39:39.329Z,98130.01
2022-09-28T08:40:42.179Z,98132.11
2022-09-28T08:41:45.105Z,98131.37
2022-09-28T08:42:47.628Z,98129.50
2022-09-28T08:43:50.330Z,98127.63
2022-09-28T08:44:52.779Z,98134.11
2022-09-28T08:45:55.251Z,98129.20
2022-09-28T08:46:57.762Z,98126.28
2022-09-28T08:48:00.300Z,98130.91
2022-09-28T08:49:23.637Z,98127.95
2022-09-28T08:50:07.727Z,98128.88
2022-09-28T08:51:10.179Z,98132.88
2022-09-28T08:52:12.644Z,98134.01
2022-09-28T08:53:15.113Z,98146.16
2022-09-28T08:54:17.576Z,98143.01
2022-09-28T08:55:20.020Z,98143.43
2022-09-28T08:56:22.775Z,98151.30
2022-09-28T08:57:25.218Z,98143.89
2022-09-28T08:58:27.715Z,98161.97
2022-09-28T08:59:30.160Z,98163.66
2022-09-28T09:00:32.811Z,98165.75
2022-09-28T09:01:35.292Z,98170.26
2022-09-28T09:02:37.970Z,98162.72
2022-09-28T09:03:40.643Z,98169.89
2022-09-28T09:04:43.125Z,98169.94
2022-09-28T09:05:45.563Z,98165.06
2022-09-28T09:06:48.236Z,98169.36
2022-09-28T09:07:50.691Z,98181.30
2022-09-28T09:08:53.368Z,98170.64
2022-09-28T09:09:55.844Z,98178.63
2022-09-28T09:10:58.297Z,98169.44
2022-09-28T09:12:00.763Z,98164.32
2022-09-28T09:13:03.226Z,98164.73
2022-09-28T09:14:05.693Z,98166.38
2022-09-28T09:15:08.190Z,98173.95
2022-09-28T09:16:11.846Z,98166.53
2022-09-28T09:17:14.637Z,98163.00
2022-09-28T09:18:19.983Z,98166.48
2022-09-28T09:19:21.528Z,98167.44
2022-09-28T09:20:24.179Z,98162.72
2022-09-28T09:21:26.837Z,98165.50
2022-09-28T09:22:29.640Z,98165.09
2022-09-28T09:23:32.094Z,98167.05
2022-09-28T09:24:34.606Z,98167.88
2022-09-28T09:25:38.594Z,98165.81
2022-09-28T09:26:41.785Z,98161.06
2022-09-28T09:27:44.223Z,98161.88
2022-09-28T09:28:46.717Z,98165.36
2022-09-28T09:29:49.285Z,98164.18
2022-09-28T09:30:51.768Z,98159.06
2022-09-28T09:31:54.474Z,98165.00
2022-09-28T09:32:56.937Z,98163.57
2022-09-28T09:33:59.377Z,98160.33
2022-09-28T09:35:01.977Z,98166.11
2022-09-28T09:36:04.516Z,98163.90
2022-09-28T09:37:06.955Z,98166.77
2022-09-28T09:38:09.401Z,98171.73
2022-09-28T09:39:11.855Z,98166.98
2022-09-28T09:40:14.842Z,98172.68
2022-09-28T09:41:17.288Z,98170.17
2022-09-28T09:42:19.753Z,98168.91
2022-09-28T09:43:22.228Z,98167.05
2022-09-28T09:44:24.769Z,98170.17
2022-09-28T09:45:27.285Z,98167.14
2022-09-28T09:46:29.922Z,98171.66
2022-09-28T09:47:32.367Z,98168.98
2022-09-28T09:48:34.808Z,98164.48
2022-09-28T09:49:37.252Z,98169.97
2022-09-28T09:50:40.044Z,98169.66
2022-09-28T09:51:42.487Z,98170.16
2022-09-28T09:52:44.938Z,98168.00
2022-09-28T09:53:47.377Z,98167.70
2022-09-28T09:54:49.822Z,98157.30
2022-09-28T09:55:52.365Z,98160.47
2022-09-28T09:56:55.111Z,98156.20
2022-09-28T09:57:57.559Z,98162.72
2022-09-28T09:59:00.013Z,98154.49
2022-09-28T10:00:02.472Z,98161.96
2022-09-28T10:01:05.042Z,98164.17
2022-09-28T10:02:11.529Z,98157.25
2022-09-28T10:03:12.037Z,98159.81
2022-09-28T10:04:14.940Z,98160.52
2022-09-28T10:05:17.384Z,98160.65
2022-09-28T10:06:20.112Z,98162.86
2022-09-28T10:07:22.555Z,98159.72
2022-09-28T10:08:25.012Z,98165.54
2022-09-28T10:09:27.454Z,98169.25
2022-09-28T10:10:30.111Z,98168.44
2022-09-28T10:11:32.611Z,98163.23
2022-09-28T10:12:35.053Z,98159.05
2022-09-28T10:13:37.526Z,98168.78
2022-09-28T10:14:39.981Z,98161.74
2022-09-28T10:15:42.427Z,98167.52
2022-09-28T10:16:45.321Z,98162.98
2022-09-28T10:17:47.890Z,98165.09
2022-09-28T10:18:50.337Z,98162.07
2022-09-28T10:19:52.804Z,98158.22
2022-09-28T10:20:55.551Z,98167.96
2022-09-28T10:21:58.341Z,98165.09
2022-09-28T10:23:00.786Z,98171.00
2022-09-28T10:24:03.292Z,98167.76
2022-09-28T10:25:05.737Z,98171.95
2022-09-28T10:26:08.579Z,98172.51
2022-09-28T10:27:11.060Z,98169.61
2022-09-28T10:28:13.501Z,98168.55
2022-09-28T10:29:16.037Z,98172.39
2022-09-28T10:30:20.189Z,98169.91
2022-09-28T10:31:22.665Z,98173.38
2022-09-28T10:32:25.241Z,98179.02
2022-09-28T10:33:28.274Z,98183.66
2022-09-28T10:34:30.723Z,98187.56
2022-09-28T10:35:33.164Z,98186.88
2022-09-28T10:36:35.814Z,98178.47
2022-09-28T10:37:38.297Z,98173.94
2022-09-28T10:38:40.907Z,98185.36
2022-09-28T10:39:43.632Z,98177.81
2022-09-28T10:40:46.363Z,98181.39
2022-09-28T10:41:49.032Z,98176.38
2022-09-28T10:42:51.556Z,98181.05
2022-09-28T10:43:58.028Z,98183.16
2022-09-28T10:44:58.376Z,98182.20
2022-09-28T10:46:00.916Z,98189.41
2022-09-28T10:47:03.626Z,98186.17
2022-09-28T10:48:06.120Z,98191.38
2022-09-28T10:49:08.566Z,98189.02
2022-09-28T10:50:11.535Z,98191.80
2022-09-28T10:51:14.073Z,98189.36
2022-09-28T10:52:16.546Z,98193.44
2022-09-28T10:53:19.018Z,98193.17
2022-09-28T10:54:21.570Z,98199.25
2022-09-28T10:55:24.027Z,98201.11
2022-09-28T10:56:26.695Z,98200.88
2022-09-28T10:57:29.175Z,98199.12
2022-09-28T10:58:31.724Z,98200.01
2022-09-28T10:59:34.195Z,98191.81
2022-09-28T11:00:36.729Z,98189.83
2022-09-28T11:01:39.470Z,98191.52
2022-09-28T11:02:42.086Z,98195.08
2022-09-28T11:03:44.654Z,98193.90
2022-09-28T11:04:47.293Z,98195.77
2022-09-28T11:05:49.736Z,98196.58
2022-09-28T11:06:52.393Z,98201.50
2022-09-28T11:07:54.948Z,98204.28
2022-09-28T11:08:57.420Z,98199.01
2022-09-28T11:09:59.875Z,98191.38
2022-09-28T11:11:02.353Z,98196.91
2022-09-28T11:12:04.818Z,98196.18
2022-09-28T11:13:07.293Z,98189.33
2022-09-28T11:14:09.769Z,98197.53
2022-09-28T11:15:12.224Z,98190.67
2022-09-28T11:16:15.210Z,98202.95
2022-09-28T11:17:17.717Z,98198.88
2022-09-28T11:18:20.187Z,98202.50
2022-09-28T11:19:22.661Z,98207.16
2022-09-28T11:20:27.988Z,98194.80
2022-09-28T11:21:30.198Z,98197.75
2022-09-28T11:22:32.696Z,98200.13
2022-09-28T11:23:35.181Z,98191.50
2022-09-28T11:24:37.646Z,98199.92
2022-09-28T11:25:40.077Z,98189.23
2022-09-28T11:26:42.818Z,98194.19
2022-09-28T11:27:45.293Z,98191.88
2022-09-28T11:28:47.729Z,98189.11
2022-09-28T11:29:50.210Z,98196.02
2022-09-28T11:30:52.927Z,98193.83
2022-09-28T11:31:55.944Z,98194.64
2022-09-28T11:32:58.402Z,98197.55
2022-09-28T11:34:00.863Z,98206.18
2022-09-28T11:35:03.368Z,98192.28
2022-09-28T11:36:05.903Z,98192.84
2022-09-28T11:37:08.350Z,98187.83
2022-09-28T11:38:11.020Z,98188.83
2022-09-28T11:39:13.599Z,98187.48
2022-09-28T11:40:16.629Z,98182.62
2022-09-28T11:41:19.353Z,98183.83
2022-09-28T11:42:21.798Z,98180.00
2022-09-28T11:43:24.227Z,98184.24
2022-09-28T11:44:29.524Z,98180.81
2022-09-28T11:45:31.057Z,98183.53
2022-09-28T11:46:33.912Z,98187.64
2022-09-28T11:47:36.504Z,98178.61
2022-09-28T11:48:38.940Z,98178.09
2022-09-28T11:49:41.374Z,98180.61
2022-09-28T11:50:43.971Z,98178.98
2022-09-28T11:51:46.401Z,98180.61
2022-09-28T11:52:48.836Z,98176.88
2022-09-28T11:53:51.273Z,98178.67
2022-09-28T11:54:53.710Z,98185.30
2022-09-28T11:55:56.182Z,98185.06
2022-09-28T11:56:59.046Z,98182.92
2022-09-28T11:58:01.481Z,98185.67
2022-09-28T11:59:03.946Z,98171.00
2022-09-28T12:00:06.689Z,98178.47
2022-09-28T12:01:09.178Z,98184.11
2022-09-28T12:02:11.931Z,98187.30
2022-09-28T12:03:14.817Z,98180.92
2022-09-28T12:04:17.323Z,98181.30
2022-09-28T12:05:21.151Z,98181.84
2022-09-28T12:06:24.341Z,98183.36
2022-09-28T12:07:26.810Z,98182.69
2022-09-28T12:08:29.260Z,98182.61
2022-09-28T12:09:31.709Z,98179.93
2022-09-28T12:10:34.345Z,98182.11
2022-09-28T12:11:36.817Z,98175.14
2022-09-28T12:12:39.254Z,98185.09
2022-09-28T12:13:41.693Z,98189.72
2022-09-28T12:14:44.135Z,98181.29
2022-09-28T12:16:17.163Z,98187.47